createdAt,value
2023-03-04T00:00:45.649Z,6.00
2023-03-04T00:05:47.291Z,7.45
2023-03-04T00:10:48.658Z,8.48
2023-03-04T00:15:50.046Z,7.50
2023-03-04T00:20:51.450Z,8.43
2023-03-04T00:25:52.900Z,7.05
2023-03-04T00:30:54.254Z,7.90
2023-03-04T00:35:55.926Z,8.20
2023-03-04T00:40:57.352Z,8.85
2023-03-04T00:45:59.775Z,10.40
2023-03-04T00:51:01.130Z,10.52
2023-03-04T00:56:02.501Z,9.63
2023-03-04T01:01:03.984Z,9.93
2023-03-04T01:06:05.643Z,9.32
2023-03-04T01:11:07.446Z,9.75
2023-03-04T01:16:10.218Z,10.77
2023-03-04T01:21:11.631Z,10.60
2023-03-04T01:26:13.022Z,11.88
2023-03-04T01:31:14.475Z,11.60
2023-03-04T01:36:15.888Z,11.65
2023-03-04T01:41:22.406Z,11.50
2023-03-04T01:46:24.289Z,13.02
2023-03-04T01:51:25.794Z,12.48
2023-03-04T01:56:35.552Z,12.82
2023-03-04T02:01:38.758Z,13.80
2023-03-04T02:06:41.236Z,13.68
2023-03-04T02:11:44.425Z,14.60
2023-03-04T02:16:46.894Z,15.52
2023-03-04T02:21:48.330Z,13.88
2023-03-04T02:26:49.736Z,13.90
2023-03-04T02:31:53.404Z,12.85
2023-03-04T02:36:55.897Z,13.73
2023-03-04T02:41:58.145Z,14.20
2023-03-04T02:47:00.459Z,14.93
2023-03-04T02:52:03.604Z,14.02
2023-03-04T02:57:07.932Z,14.43
2023-03-04T03:02:10.250Z,14.48
2023-03-04T03:07:11.692Z,15.32
2023-03-04T03:12:13.095Z,14.27
2023-03-04T03:17:14.468Z,15.57
2023-03-04T03:22:15.877Z,15.13
2023-03-04T03:27:17.293Z,14.63
2023-03-04T03:32:18.723Z,14.13
2023-03-04T03:37:20.275Z,15.20
2023-03-04T03:42:21.632Z,13.85
2023-03-04T03:47:23.137Z,15.55
2023-03-04T03:52:24.536Z,16.25
2023-03-04T03:57:25.938Z,16.33
2023-03-04T04:02:27.587Z,13.10
2023-03-04T04:07:29.075Z,14.13
2023-03-04T04:12:30.690Z,15.40
2023-03-04T04:17:32.113Z,14.05
2023-03-04T04:22:34.038Z,15.32
2023-03-04T04:27:35.477Z,13.63
2023-03-04T04:32:37.032Z,14.55
2023-03-04T04:37:38.392Z,13.85
2023-03-04T04:42:39.739Z,14.73
2023-03-04T04:47:41.122Z,14.68
2023-03-04T04:52:42.605Z,13.90
2023-03-04T04:57:44.064Z,14.55
2023-03-04T05:02:45.550Z,13.65
2023-03-04T05:07:46.907Z,15.10
2023-03-04T05:12:49.706Z,14.52
2023-03-04T05:17:51.119Z,14.77
2023-03-04T05:22:52.523Z,13.45
2023-03-04T05:27:53.885Z,14.48
2023-03-04T05:32:55.230Z,15.35
2023-03-04T05:37:56.579Z,14.82
2023-03-04T05:42:58.082Z,15.18
2023-03-04T05:48:00.125Z,13.73
2023-03-04T05:53:01.541Z,15.27
2023-03-04T05:58:02.976Z,13.82
2023-03-04T06:03:04.443Z,14.82
2023-03-04T06:08:05.912Z,15.70
2023-03-04T06:13:08.017Z,13.85
2023-03-04T06:18:09.465Z,14.02
2023-03-04T06:23:10.892Z,13.52
2023-03-04T06:28:12.303Z,14.25
2023-03-04T06:33:13.701Z,14.25
2023-03-04T06:38:15.341Z,15.18
2023-03-04T06:43:16.870Z,14.00
2023-03-04T06:48:18.211Z,14.23
2023-03-04T06:53:19.601Z,13.73
2023-03-04T06:58:20.953Z,14.68
2023-03-04T07:03:22.574Z,14.27
2023-03-04T07:08:23.921Z,13.57
2023-03-04T07:13:25.323Z,12.55
2023-03-04T07:18:26.857Z,12.10
2023-03-04T07:23:28.331Z,12.70
2023-03-04T07:28:29.846Z,12.75
2023-03-04T07:33:31.192Z,11.88
2023-03-04T07:38:32.916Z,12.27
2023-03-04T07:43:34.411Z,12.30
2023-03-04T07:48:37.112Z,11.20
2023-03-04T07:53:39.977Z,10.27
2023-03-04T07:58:41.934Z,11.23
2023-03-04T08:03:43.617Z,11.13
2023-03-04T08:08:46.013Z,10.43
2023-03-04T08:13:48.723Z,10.63
2023-03-04T08:18:52.692Z,9.13
2023-03-04T08:23:55.053Z,8.95
2023-03-04T08:28:57.553Z,8.95
2023-03-04T08:33:59.012Z,9.35
2023-03-04T08:39:00.462Z,10.40
2023-03-04T08:44:02.003Z,8.98
2023-03-04T08:49:04.210Z,8.43
2023-03-04T08:54:05.818Z,8.95
2023-03-04T08:59:07.188Z,8.43
2023-03-04T09:04:08.865Z,9.02
2023-03-04T09:09:10.308Z,6.93
2023-03-04T09:14:11.852Z,6.95
2023-03-04T09:19:13.242Z,6.65
2023-03-04T09:24:14.724Z,7.03
2023-03-04T09:29:16.077Z,6.72
2023-03-04T09:34:17.484Z,6.38
2023-03-04T09:39:18.929Z,6.82
2023-03-04T09:44:30.680Z,5.68
2023-03-04T09:49:32.363Z,6.03
2023-03-04T09:54:45.111Z,6.53
2023-03-04T10:00:07.830Z,5.60
2023-03-04T10:05:16.498Z,4.68
2023-03-04T10:10:40.179Z,4.32
2023-03-04T10:15:46.450Z,4.90
2023-03-04T10:21:06.664Z,4.25
2023-03-04T10:26:13.752Z,3.95
2023-03-04T10:31:29.030Z,4.72
2023-03-04T10:36:30.423Z,5.13
2023-03-04T10:41:32.330Z,3.67
2023-03-04T10:46:38.339Z,3.83
2023-03-04T10:52:03.582Z,3.55
2023-03-04T10:57:13.702Z,4.18
2023-03-04T11:02:15.056Z,4.03
2023-03-04T11:07:16.476Z,5.30
2023-03-04T11:12:22.132Z,2.70
2023-03-04T11:17:48.523Z,2.50
2023-03-04T11:22:51.802Z,3.45
2023-03-04T11:28:00.732Z,2.50
2023-03-04T11:33:26.986Z,2.72
2023-03-04T11:38:39.307Z,3.92
2023-03-04T11:43:46.603Z,3.15
2023-03-04T11:49:07.057Z,3.38
2023-03-04T11:54:32.361Z,2.53
2023-03-04T11:59:58.614Z,2.97
2023-03-04T12:05:17.431Z,2.40
2023-03-04T12:10:52.694Z,1.80
2023-03-04T12:16:00.331Z,2.03
2023-03-04T12:26:08.566Z,1.08
2023-03-04T12:31:33.203Z,1.65
2023-03-04T12:36:37.282Z,1.50
2023-03-04T12:42:29.441Z,1.42
2023-03-04T12:47:51.158Z,1.17
2023-03-04T12:53:14.488Z,0.70
2023-03-04T12:58:19.900Z,1.33
2023-03-04T13:03:24.473Z,0.90
2023-03-04T13:08:33.343Z,0.93
2023-03-04T13:13:37.351Z,0.70
2023-03-04T13:18:39.489Z,0.95
2023-03-04T13:23:42.127Z,0.88
2023-03-04T13:28:43.831Z,0.70
2023-03-04T13:33:49.494Z,0.60
2023-03-04T13:39:21.881Z,0.70
2023-03-04T13:44:44.907Z,1.10
2023-03-04T13:55:33.342Z,0.60
2023-03-04T14:06:18.159Z,1.10
2023-03-04T14:11:38.466Z,0.82
2023-03-04T14:16:56.084Z,1.80
2023-03-04T14:21:59.448Z,1.35
2023-03-04T14:27:11.060Z,1.48
2023-03-04T14:32:12.849Z,1.77
2023-03-04T14:37:27.050Z,1.35
2023-03-04T14:42:39.215Z,1.10
2023-03-04T14:47:45.181Z,1.60
2023-03-04T14:52:51.573Z,1.52
2023-03-04T14:58:05.732Z,1.23
2023-03-04T15:03:21.743Z,1.35
2023-03-04T15:08:32.732Z,1.85
2023-03-04T15:13:50.405Z,1.10
2023-03-04T15:19:26.293Z,1.05
2023-03-04T15:24:27.648Z,0.90
2023-03-04T15:29:29.104Z,0.85
2023-03-04T15:34:31.380Z,1.00
2023-03-04T15:39:32.843Z,0.80
2023-03-04T15:44:34.234Z,1.13
2023-03-04T15:49:35.611Z,1.10
2023-03-04T15:54:36.991Z,1.73
2023-03-04T15:59:38.418Z,1.42
2023-03-04T16:04:39.798Z,1.25
2023-03-04T16:09:41.210Z,0.93
2023-03-04T16:14:44.270Z,1.80
2023-03-04T16:19:46.701Z,1.33
2023-03-04T16:24:48.105Z,1.40
2023-03-04T16:29:49.493Z,1.35
2023-03-04T16:34:50.865Z,1.23
2023-03-04T16:39:52.444Z,1.45
2023-03-04T16:44:55.206Z,1.80
2023-03-04T16:49:57.591Z,2.08
2023-03-04T16:55:00.154Z,1.80
2023-03-04T17:00:01.666Z,2.00
2023-03-04T17:05:04.202Z,3.22
2023-03-04T17:10:06.037Z,3.47
2023-03-04T17:15:09.927Z,3.35
2023-03-04T17:20:14.347Z,4.00
2023-03-04T17:25:16.021Z,3.22
2023-03-04T17:30:17.641Z,3.75
2023-03-04T17:35:19.328Z,3.80
2023-03-04T17:40:20.874Z,4.43
2023-03-04T17:45:22.294Z,4.85
2023-03-04T17:50:23.692Z,5.10
2023-03-04T17:55:26.339Z,5.68
2023-03-04T18:00:27.817Z,6.97
2023-03-04T18:05:29.234Z,3.92
2023-03-04T18:10:30.611Z,4.20
2023-03-04T18:15:32.147Z,4.72
2023-03-04T18:20:33.646Z,5.45
2023-03-04T18:25:35.095Z,4.80
2023-03-04T18:30:38.205Z,5.38
2023-03-04T18:35:39.651Z,5.55
2023-03-04T18:40:42.169Z,6.68
2023-03-04T18:45:43.701Z,5.85
2023-03-04T18:50:45.355Z,7.35
2023-03-04T18:55:46.829Z,6.43
2023-03-04T19:00:48.344Z,6.63
2023-03-04T19:05:49.976Z,6.05
2023-03-04T19:10:51.441Z,7.10
2023-03-04T19:15:54.441Z,6.50
2023-03-04T19:20:59.562Z,6.15
2023-03-04T19:26:01.080Z,6.35
2023-03-04T19:31:07.381Z,7.25
2023-03-04T19:36:09.566Z,6.95
2023-03-04T19:41:13.981Z,6.15
2023-03-04T19:46:15.981Z,6.97
2023-03-04T19:51:19.831Z,7.47
2023-03-04T19:56:23.925Z,7.80
2023-03-04T20:01:30.892Z,7.40
2023-03-04T20:06:35.954Z,6.67
2023-03-04T20:11:44.222Z,4.75
2023-03-04T20:16:48.722Z,5.15
2023-03-04T20:21:50.141Z,5.47
2023-03-04T20:26:52.129Z,6.35
2023-03-04T20:31:53.533Z,5.90
2023-03-04T20:36:54.940Z,5.63
2023-03-04T20:41:59.429Z,5.60
2023-03-04T20:47:01.620Z,5.80
2023-03-04T20:52:06.287Z,5.53
2023-03-04T20:57:08.605Z,6.05
2023-03-04T21:02:14.900Z,7.28
2023-03-04T21:07:16.516Z,6.13
2023-03-04T21:12:17.977Z,7.55
2023-03-04T21:17:19.371Z,7.28
2023-03-04T21:22:21.022Z,7.22
2023-03-04T21:27:22.521Z,6.85
2023-03-04T21:32:26.450Z,6.53
2023-03-04T21:37:27.936Z,7.18
2023-03-04T21:42:29.434Z,6.90
2023-03-04T21:47:30.809Z,6.45
2023-03-04T21:52:32.179Z,6.50
2023-03-04T21:57:33.561Z,6.63
2023-03-04T22:02:34.972Z,6.13
2023-03-04T22:07:36.407Z,6.53
2023-03-04T22:12:37.770Z,6.13
2023-03-04T22:17:39.227Z,5.03
2023-03-04T22:22:40.648Z,6.15
2023-03-04T22:27:42.023Z,5.80
2023-03-04T22:32:48.260Z,6.63
2023-03-04T22:37:49.669Z,4.47
2023-03-04T22:42:51.117Z,6.00
2023-03-04T22:47:52.849Z,6.82
2023-03-04T22:52:54.369Z,6.78
2023-03-04T22:57:55.735Z,6.63
2023-03-04T23:02:57.807Z,6.55
2023-03-04T23:07:59.641Z,6.97
2023-03-04T23:13:01.024Z,6.55
2023-03-04T23:18:02.444Z,6.88
2023-03-04T23:23:03.832Z,7.35
2023-03-04T23:28:05.362Z,7.35
2023-03-04T23:33:06.754Z,6.25
2023-03-04T23:38:08.122Z,6.47
2023-03-04T23:43:09.544Z,5.05
2023-03-04T23:48:10.906Z,5.22
2023-03-04T23:53:12.301Z,5.00
2023-03-04T23:58:13.693Z,4.60
